createdAt,value
2022-08-09T00:01:55.039Z,43.33
2022-08-09T00:12:03.387Z,45.74
2022-08-09T00:22:06.376Z,46.08
2022-08-09T00:32:08.152Z,47.25
2022-08-09T00:44:16.910Z,46.29
2022-08-09T00:52:37.335Z,47.01
2022-08-09T01:02:46.359Z,47.92
2022-08-09T01:12:56.906Z,47.42
2022-08-09T01:24:00.554Z,49.66
2022-08-09T01:33:40.625Z,49.45
2022-08-09T01:43:51.808Z,49.53
2022-08-09T01:53:58.047Z,49.57
2022-08-09T02:04:02.834Z,50.53
2022-08-09T02:14:09.297Z,50.36
2022-08-09T02:24:26.052Z,52.20
2022-08-09T02:34:41.295Z,51.54
2022-08-09T02:45:01.982Z,50.95
2022-08-09T02:55:20.959Z,52.51
2022-08-09T03:05:23.777Z,52.43
2022-08-09T03:16:04.335Z,53.05
2022-08-09T03:25:58.694Z,54.37
2022-08-09T03:36:13.893Z,53.54
2022-08-09T03:46:20.775Z,54.60
2022-08-09T03:56:29.194Z,53.17
2022-08-09T04:06:30.866Z,53.54
2022-08-09T04:16:32.751Z,54.56
2022-08-09T04:26:37.733Z,55.76
2022-08-09T04:36:43.631Z,55.96
2022-08-09T04:47:00.097Z,56.07
2022-08-09T04:57:09.290Z,56.77
2022-08-09T05:07:19.101Z,58.45
2022-08-09T05:18:42.869Z,57.50
2022-08-09T05:27:46.548Z,57.51
2022-08-09T05:37:50.950Z,57.81
2022-08-09T05:47:54.296Z,58.98
2022-08-09T05:58:00.927Z,54.70
2022-08-09T06:08:05.435Z,53.95
2022-08-09T06:18:09.917Z,53.57
2022-08-09T06:28:13.779Z,52.20
2022-08-09T06:38:15.953Z,52.93
2022-08-09T06:48:26.199Z,50.97
2022-08-09T07:00:47.330Z,51.98
2022-08-09T07:08:58.317Z,50.20
2022-08-09T07:18:59.965Z,49.59
2022-08-09T07:29:11.855Z,48.67
2022-08-09T07:39:20.236Z,47.55
2022-08-09T07:50:05.283Z,47.84
2022-08-09T08:00:02.962Z,45.64
2022-08-09T08:10:14.054Z,45.43
2022-08-09T08:20:29.078Z,44.65
2022-08-09T08:30:34.583Z,43.12
2022-08-09T08:40:38.501Z,44.52
2022-08-09T08:50:40.462Z,42.54
2022-08-09T09:00:47.356Z,41.12
2022-08-09T09:11:02.871Z,41.04
2022-08-09T09:21:10.016Z,38.81
2022-08-09T09:32:03.688Z,40.82
2022-08-09T09:41:49.753Z,38.74
2022-08-09T09:52:02.373Z,36.94
2022-08-09T10:02:04.452Z,35.70
2022-08-09T10:12:26.815Z,34.74
2022-08-09T10:22:33.414Z,34.39
2022-08-09T10:32:42.517Z,34.56
2022-08-09T10:42:52.945Z,33.76
2022-08-09T10:53:21.134Z,33.41
2022-08-09T11:03:53.232Z,32.60
2022-08-09T11:14:31.739Z,32.18
2022-08-09T11:25:03.792Z,31.35
2022-08-09T11:35:35.269Z,30.75
2022-08-09T11:45:55.687Z,30.32
2022-08-09T11:56:34.396Z,29.57
2022-08-09T12:06:56.090Z,28.44
2022-08-09T12:16:58.569Z,27.73
2022-08-09T12:28:59.124Z,26.67
2022-08-09T12:37:31.188Z,26.73
2022-08-09T12:47:37.249Z,26.36
2022-08-09T12:57:47.146Z,26.96
2022-08-09T13:08:12.599Z,27.62
2022-08-09T13:18:17.463Z,24.81
2022-08-09T13:28:33.922Z,26.32
2022-08-09T13:38:57.642Z,25.88
2022-08-09T13:48:59.681Z,27.70
2022-08-09T13:59:02.860Z,28.67
2022-08-09T14:09:04.937Z,28.04
2022-08-09T14:19:07.494Z,27.95
2022-08-09T14:30:03.981Z,28.02
2022-08-09T14:39:47.841Z,28.09
2022-08-09T14:50:01.958Z,28.47
2022-08-09T15:00:05.484Z,28.23
2022-08-09T15:10:14.336Z,27.61
2022-08-09T15:21:57.106Z,27.69
2022-08-09T15:30:59.160Z,27.68
2022-08-09T15:41:09.559Z,27.85
2022-08-09T15:51:44.532Z,27.02
2022-08-09T16:01:35.365Z,28.03
2022-08-09T16:11:37.687Z,28.15
2022-08-09T16:21:41.085Z,28.90
2022-08-09T16:32:18.559Z,28.69
2022-08-09T16:42:10.277Z,29.02
2022-08-09T16:52:19.226Z,29.40
2022-08-09T17:02:23.107Z,29.77
2022-08-09T17:12:26.255Z,29.50
2022-08-09T17:22:31.189Z,30.24
2022-08-09T17:32:37.629Z,30.25
2022-08-09T17:42:42.010Z,30.72
2022-08-09T17:53:04.653Z,30.80
2022-08-09T18:03:12.899Z,31.61
2022-08-09T18:13:38.643Z,31.55
2022-08-09T18:24:11.980Z,31.90
2022-08-09T18:33:58.885Z,31.98
2022-08-09T18:44:03.323Z,32.45
2022-08-09T18:54:10.551Z,32.91
2022-08-09T19:04:34.604Z,32.86
2022-08-09T19:14:37.024Z,33.34
2022-08-09T19:25:07.181Z,34.05
2022-08-09T19:35:01.627Z,33.67
2022-08-09T19:45:04.633Z,38.47
2022-08-09T19:55:07.573Z,37.76
2022-08-09T20:05:10.183Z,35.01
2022-08-09T20:16:33.519Z,35.73
2022-08-09T20:25:52.628Z,35.87
2022-08-09T20:35:55.753Z,35.94
2022-08-09T20:46:15.547Z,36.04
2022-08-09T20:56:21.841Z,36.74
2022-08-09T21:06:23.816Z,36.91
2022-08-09T21:16:30.426Z,36.85
2022-08-09T21:26:33.241Z,36.91
2022-08-09T21:36:36.540Z,38.73
2022-08-09T21:46:38.342Z,38.02
2022-08-09T21:56:44.554Z,39.61
2022-08-09T22:07:01.840Z,39.28
2022-08-09T22:17:06.662Z,39.81
2022-08-09T22:27:12.196Z,40.00
2022-08-09T22:37:14.058Z,40.59
2022-08-09T22:48:18.327Z,40.01
2022-08-09T22:57:38.871Z,41.64
2022-08-09T23:08:21.871Z,41.70
2022-08-09T23:18:25.222Z,41.09
2022-08-09T23:28:26.995Z,41.24
2022-08-09T23:38:28.779Z,42.89
2022-08-09T23:48:30.677Z,43.85
2022-08-09T23:58:32.443Z,43.77
